createdAt,value
2019-04-22T00:00:17.879Z,7.84
2019-04-22T00:01:20.638Z,7.84
2019-04-22T00:02:15.742Z,7.92
2019-04-22T00:03:16.794Z,7.87
2019-04-22T00:04:26.990Z,7.86
2019-04-22T00:05:36.941Z,7.87
2019-04-22T00:06:39.277Z,7.83
2019-04-22T00:07:38.215Z,7.84
2019-04-22T00:08:35.783Z,7.80
2019-04-22T00:09:41.804Z,7.80
2019-04-22T00:10:42.005Z,7.81
2019-04-22T00:11:48.536Z,7.83
2019-04-22T00:12:42.833Z,7.73
2019-04-22T00:13:40.232Z,7.81
2019-04-22T00:14:38.147Z,7.66
2019-04-22T00:15:32.542Z,7.69
2019-04-22T00:16:50.351Z,7.71
2019-04-22T00:17:47.463Z,7.69
2019-04-22T00:18:56.429Z,7.74
2019-04-22T00:19:47.102Z,7.76
2019-04-22T00:20:43.891Z,7.61
2019-04-22T00:21:40.437Z,7.69
2019-04-22T00:22:38.645Z,7.64
2019-04-22T00:23:43.358Z,7.69
2019-04-22T00:24:38.183Z,7.57
2019-04-22T00:25:42.053Z,7.58
2019-04-22T00:26:44.406Z,7.60
2019-04-22T00:27:42.834Z,7.55
2019-04-22T00:28:43.801Z,7.60
2019-04-22T00:31:40.379Z,7.50
2019-04-22T00:32:36.557Z,7.55
2019-04-22T00:33:41.961Z,7.49
2019-04-22T00:34:38.078Z,7.57
2019-04-22T00:35:38.072Z,7.61
2019-04-22T00:36:36.061Z,7.61
2019-04-22T00:37:56.957Z,7.55
2019-04-22T00:38:38.371Z,7.54
2019-04-22T00:40:41.158Z,7.50
2019-04-22T00:41:42.810Z,7.49
2019-04-22T00:42:41.599Z,7.52
2019-04-22T00:43:44.094Z,7.54
2019-04-22T00:44:43.271Z,7.37
2019-04-22T00:45:38.934Z,7.50
2019-04-22T00:46:38.123Z,7.39
2019-04-22T00:47:50.313Z,7.43
2019-04-22T00:48:43.082Z,7.34
2019-04-22T00:50:09.290Z,7.37
2019-04-22T00:51:48.713Z,7.37
2019-04-22T00:52:39.912Z,7.39
2019-04-22T00:54:44.235Z,7.39
2019-04-22T00:55:40.402Z,7.34
2019-04-22T00:56:35.794Z,7.39
2019-04-22T00:57:42.606Z,7.37
2019-04-22T00:58:36.470Z,7.34
2019-04-22T00:59:37.518Z,7.33
2019-04-22T01:00:39.173Z,7.22
2019-04-22T01:01:36.957Z,7.26
2019-04-22T01:02:41.552Z,7.21
2019-04-22T01:03:42.750Z,7.13
2019-04-22T01:04:39.308Z,7.21
2019-04-22T01:05:41.507Z,7.15
2019-04-22T01:06:51.363Z,7.24
2019-04-22T01:07:39.935Z,7.13
2019-04-22T01:08:30.429Z,7.18
2019-04-22T01:09:42.830Z,7.15
2019-04-22T01:10:39.060Z,7.25
2019-04-22T01:11:33.664Z,7.15
2019-04-22T01:12:40.033Z,7.18
2019-04-22T01:13:42.486Z,7.13
2019-04-22T01:14:37.263Z,7.13
2019-04-22T01:15:40.826Z,7.01
2019-04-22T01:17:41.754Z,7.15
2019-04-22T01:18:37.712Z,7.11
2019-04-22T01:19:46.679Z,7.00
2019-04-22T01:21:58.318Z,7.08
2019-04-22T01:22:34.080Z,7.11
2019-04-22T01:23:39.254Z,7.10
2019-04-22T01:24:35.478Z,7.19
2019-04-22T01:25:31.271Z,7.18
2019-04-22T01:26:33.139Z,7.13
2019-04-22T01:27:28.302Z,7.11
2019-04-22T01:28:23.418Z,7.06
2019-04-22T01:29:27.953Z,7.13
2019-04-22T01:30:23.269Z,7.33
2019-04-22T01:31:19.531Z,7.28
2019-04-22T01:32:18.842Z,7.31
2019-04-22T01:33:21.875Z,7.33
2019-04-22T01:34:28.838Z,7.26
2019-04-22T01:35:26.421Z,7.26
2019-04-22T01:36:30.549Z,7.28
2019-04-22T01:37:28.803Z,7.29
2019-04-22T01:38:31.380Z,7.29
2019-04-22T01:39:37.629Z,7.22
2019-04-22T01:40:38.919Z,7.21
2019-04-22T01:42:39.699Z,7.16
2019-04-22T01:44:40.817Z,7.26
2019-04-22T01:45:41.007Z,7.19
2019-04-22T01:46:42.685Z,7.21
2019-04-22T01:47:36.346Z,7.16
2019-04-22T01:48:39.429Z,7.13
2019-04-22T01:49:39.868Z,7.10
2019-04-22T01:50:37.068Z,7.03
2019-04-22T01:51:56.633Z,7.15
2019-04-22T01:53:42.493Z,7.07
2019-04-22T01:54:45.488Z,7.00
2019-04-22T01:55:41.189Z,7.06
2019-04-22T01:56:40.893Z,7.03
2019-04-22T01:57:39.375Z,6.99
2019-04-22T01:58:36.205Z,7.04
2019-04-22T01:59:31.803Z,7.06
2019-04-22T02:00:39.701Z,7.04
2019-04-22T02:01:43.895Z,7.03
2019-04-22T02:02:36.405Z,7.03
2019-04-22T02:03:43.903Z,7.00
2019-04-22T02:04:47.955Z,6.97
2019-04-22T02:05:39.796Z,7.01
2019-04-22T02:06:42.154Z,7.00
2019-04-22T02:07:34.067Z,6.99
2019-04-22T02:08:49.168Z,7.11
2019-04-22T02:09:47.518Z,7.01
2019-04-22T02:11:56.917Z,7.15
2019-04-22T02:12:43.367Z,7.13
2019-04-22T02:13:37.907Z,7.11
2019-04-22T02:14:39.907Z,7.21
2019-04-22T02:15:43.746Z,7.21
2019-04-22T02:16:41.538Z,7.31
2019-04-22T02:18:39.412Z,7.25
2019-04-22T02:19:37.634Z,7.16
2019-04-22T02:20:41.050Z,7.16
2019-04-22T02:22:52.585Z,7.16
2019-04-22T02:24:39.814Z,7.00
2019-04-22T02:25:47.408Z,7.01
2019-04-22T02:26:48.364Z,7.03
2019-04-22T02:27:39.039Z,6.92
2019-04-22T02:28:47.666Z,6.93
2019-04-22T02:29:31.316Z,7.06
2019-04-22T02:30:49.922Z,6.93
2019-04-22T02:31:44.441Z,6.91
2019-04-22T02:32:48.592Z,6.86
2019-04-22T02:34:05.441Z,6.83
2019-04-22T02:34:46.073Z,6.78
2019-04-22T02:35:59.858Z,6.83
2019-04-22T02:36:41.074Z,6.73
2019-04-22T02:37:35.859Z,6.73
2019-04-22T02:39:41.041Z,6.70
2019-04-22T02:40:56.460Z,6.65
2019-04-22T02:42:32.414Z,6.70
2019-04-22T02:44:42.755Z,6.68
2019-04-22T02:45:57.619Z,6.64
2019-04-22T02:46:54.718Z,6.64
2019-04-22T02:47:36.129Z,6.71
2019-04-22T02:48:53.827Z,6.64
2019-04-22T02:50:43.918Z,6.67
2019-04-22T02:51:35.294Z,6.65
2019-04-22T02:52:37.066Z,6.67
2019-04-22T02:54:15.119Z,6.68
2019-04-22T02:55:40.843Z,6.73
2019-04-22T02:57:55.137Z,6.79
2019-04-22T02:58:55.107Z,6.67
2019-04-22T03:00:46.345Z,6.71
2019-04-22T03:01:45.081Z,6.71
2019-04-22T03:02:52.637Z,6.60
2019-04-22T03:04:37.547Z,6.67
2019-04-22T03:05:51.083Z,6.73
2019-04-22T03:07:40.961Z,6.61
2019-04-22T03:11:45.054Z,6.49
2019-04-22T03:12:36.987Z,6.47
2019-04-22T03:13:47.438Z,6.45
2019-04-22T03:15:40.784Z,6.35
2019-04-22T03:17:47.327Z,6.18
2019-04-22T03:18:51.292Z,6.25
2019-04-22T03:20:42.763Z,6.30
2019-04-22T03:21:36.730Z,6.15
2019-04-22T03:23:55.848Z,6.19
2019-04-22T03:27:42.712Z,6.32
2019-04-22T03:28:47.739Z,6.35
2019-04-22T03:30:07.855Z,6.45
2019-04-22T03:30:56.480Z,6.42
2019-04-22T03:33:55.119Z,6.42
2019-04-22T03:35:45.211Z,6.35
2019-04-22T03:38:58.655Z,6.43
2019-04-22T03:39:52.938Z,6.43
2019-04-22T03:40:46.999Z,6.50
2019-04-22T03:42:52.425Z,6.50
2019-04-22T03:44:02.723Z,6.60
2019-04-22T03:45:02.865Z,6.56
2019-04-22T03:46:50.988Z,6.57
2019-04-22T03:47:52.934Z,6.50
2019-04-22T03:49:49.998Z,6.57
2019-04-22T03:51:52.066Z,6.47
2019-04-22T03:52:38.781Z,6.50
2019-04-22T03:53:45.867Z,6.40
2019-04-22T03:55:45.088Z,6.42
2019-04-22T04:03:46.345Z,6.13
2019-04-22T04:04:36.767Z,6.11
2019-04-22T04:05:49.685Z,6.13
2019-04-22T04:06:54.619Z,6.19
2019-04-22T04:08:38.884Z,6.18
2019-04-22T04:09:44.262Z,6.16
2019-04-22T04:11:55.815Z,6.25
2019-04-22T04:12:58.156Z,6.19
2019-04-22T04:13:41.655Z,6.34
2019-04-22T04:14:46.622Z,6.25
2019-04-22T04:15:52.415Z,6.34
2019-04-22T04:16:52.130Z,6.32
2019-04-22T04:17:44.127Z,6.34
2019-04-22T04:18:53.320Z,6.30
2019-04-22T04:20:05.492Z,6.32
2019-04-22T04:20:52.961Z,6.50
2019-04-22T04:22:55.990Z,6.32
2019-04-22T04:23:46.170Z,6.30
2019-04-22T04:25:02.217Z,6.32
2019-04-22T04:33:54.406Z,6.55
2019-04-22T04:35:07.290Z,6.63
2019-04-22T04:36:01.882Z,6.70
2019-04-22T04:36:42.442Z,6.79
2019-04-22T04:38:46.437Z,7.08
2019-04-22T04:39:45.861Z,7.24
2019-04-22T04:42:54.420Z,7.52
2019-04-22T04:43:48.113Z,7.66
2019-04-22T04:44:59.294Z,7.69
2019-04-22T04:46:51.770Z,7.83
2019-04-22T04:49:03.028Z,7.86
2019-04-22T04:49:50.599Z,7.99
2019-04-22T04:50:38.533Z,7.98
2019-04-22T04:51:37.634Z,7.99
2019-04-22T04:53:41.382Z,8.02
2019-04-22T04:55:18.510Z,8.02
2019-04-22T04:55:35.018Z,8.06
2019-04-22T04:57:57.569Z,8.12
2019-04-22T05:00:11.334Z,8.21
2019-04-22T05:01:19.825Z,8.16
2019-04-22T05:01:55.187Z,8.31
2019-04-22T05:02:46.680Z,8.26
2019-04-22T05:03:48.999Z,8.29
2019-04-22T05:04:56.709Z,8.29
2019-04-22T05:06:53.563Z,8.31
2019-04-22T05:09:47.947Z,8.53
2019-04-22T05:10:51.616Z,8.49
2019-04-22T05:11:54.438Z,8.56
2019-04-22T05:14:44.588Z,8.72
2019-04-22T05:18:41.217Z,8.93
2019-04-22T05:19:32.327Z,9.03
2019-04-22T05:20:57.233Z,9.12
2019-04-22T05:21:29.600Z,9.11
2019-04-22T05:23:37.418Z,9.15
2019-04-22T05:24:40.469Z,9.14
2019-04-22T05:25:48.866Z,9.19
2019-04-22T05:27:40.047Z,9.27
2019-04-22T05:28:30.268Z,9.41
2019-04-22T05:30:34.282Z,9.42
2019-04-22T05:31:38.977Z,9.51
2019-04-22T05:32:37.293Z,9.60
2019-04-22T05:33:34.939Z,9.48
2019-04-22T05:34:35.566Z,9.66
2019-04-22T05:35:31.125Z,9.54
2019-04-22T05:36:32.745Z,9.63
2019-04-22T05:37:32.806Z,9.70
2019-04-22T05:38:42.786Z,9.75
2019-04-22T05:39:28.538Z,9.73
2019-04-22T05:40:28.001Z,9.70
2019-04-22T05:41:39.523Z,9.81
2019-04-22T05:42:28.480Z,9.93
2019-04-22T05:43:38.653Z,9.96
2019-04-22T05:45:43.125Z,10.03
2019-04-22T05:46:28.546Z,10.05
2019-04-22T05:47:31.972Z,10.09
2019-04-22T05:48:35.547Z,10.09
2019-04-22T05:49:31.266Z,10.17
2019-04-22T05:50:30.457Z,10.17
2019-04-22T05:52:49.876Z,10.36
2019-04-22T05:53:37.140Z,10.39
2019-04-22T05:55:38.700Z,10.54
2019-04-22T05:56:39.538Z,10.54
2019-04-22T05:57:44.328Z,10.55
2019-04-22T06:00:47.625Z,10.76
2019-04-22T06:02:41.708Z,10.82
2019-04-22T06:03:34.797Z,10.75
2019-04-22T06:04:29.729Z,10.87
2019-04-22T06:05:48.577Z,10.94
2019-04-22T06:06:29.273Z,10.97
2019-04-22T06:07:35.216Z,11.11
2019-04-22T06:08:33.214Z,11.12
2019-04-22T06:09:29.758Z,11.11
2019-04-22T06:11:29.421Z,11.22
2019-04-22T06:12:26.265Z,11.16
2019-04-22T06:13:27.701Z,11.27
2019-04-22T06:14:27.873Z,11.25
2019-04-22T06:15:28.858Z,11.37
2019-04-22T06:16:31.158Z,11.41
2019-04-22T06:17:37.996Z,11.52
2019-04-22T06:18:46.983Z,11.59
2019-04-22T06:19:33.279Z,11.67
2019-04-22T06:20:33.908Z,11.70
2019-04-22T06:21:33.718Z,11.71
2019-04-22T06:22:45.794Z,11.95
2019-04-22T06:23:34.578Z,11.93
2019-04-22T06:25:57.807Z,12.10
2019-04-22T06:26:37.577Z,12.17
2019-04-22T06:27:38.999Z,12.26
2019-04-22T06:30:48.963Z,12.47
2019-04-22T06:31:49.652Z,12.51
2019-04-22T06:33:48.758Z,12.77
2019-04-22T06:36:43.465Z,13.02
2019-04-22T06:37:33.926Z,13.19
2019-04-22T06:39:34.370Z,13.43
2019-04-22T06:41:47.821Z,13.51
2019-04-22T06:42:36.551Z,13.45
2019-04-22T06:43:56.324Z,13.54
2019-04-22T06:44:32.302Z,13.60
2019-04-22T06:45:32.284Z,13.71
2019-04-22T06:46:36.742Z,13.79
2019-04-22T06:47:49.190Z,13.83
2019-04-22T06:50:36.812Z,13.98
2019-04-22T06:51:35.672Z,13.96
2019-04-22T06:52:28.153Z,14.04
2019-04-22T06:55:40.167Z,14.22
2019-04-22T06:56:27.574Z,14.27
2019-04-22T06:57:34.768Z,14.21
2019-04-22T06:59:34.538Z,14.48
2019-04-22T07:00:30.788Z,14.58
2019-04-22T07:01:27.652Z,14.58
2019-04-22T07:02:38.994Z,14.66
2019-04-22T07:04:29.667Z,14.74
2019-04-22T07:05:28.036Z,14.74
2019-04-22T07:06:35.130Z,14.86
2019-04-22T07:11:23.711Z,14.96
2019-04-22T07:12:30.199Z,15.05
2019-04-22T07:13:43.156Z,15.08
2019-04-22T07:14:28.345Z,15.04
2019-04-22T07:15:46.456Z,15.14
2019-04-22T07:16:31.999Z,15.22
2019-04-22T07:17:39.296Z,15.30
2019-04-22T07:18:38.639Z,15.38
2019-04-22T07:19:33.510Z,15.45
2019-04-22T07:21:30.828Z,15.50
2019-04-22T07:22:33.782Z,15.54
2019-04-22T07:24:40.342Z,15.77
2019-04-22T07:25:29.144Z,15.95
2019-04-22T07:27:33.086Z,16.39
2019-04-22T07:28:23.386Z,16.65
2019-04-22T07:29:32.673Z,17.04
2019-04-22T07:31:27.054Z,17.43
2019-04-22T07:32:54.898Z,17.65
2019-04-22T07:33:32.393Z,17.66
2019-04-22T07:34:46.202Z,17.79
2019-04-22T07:35:35.931Z,17.96
2019-04-22T07:38:26.783Z,18.13
2019-04-22T07:39:30.892Z,18.11
2019-04-22T07:40:37.518Z,17.97
2019-04-22T07:41:32.851Z,17.94
2019-04-22T07:42:34.430Z,17.75
2019-04-22T07:43:43.009Z,18.02
2019-04-22T07:44:36.945Z,18.08
2019-04-22T07:45:29.559Z,18.15
2019-04-22T07:46:39.184Z,18.13
2019-04-22T07:48:43.234Z,18.45
2019-04-22T07:49:33.581Z,18.43
2019-04-22T07:50:44.479Z,18.41
2019-04-22T07:51:32.849Z,18.39
2019-04-22T07:52:27.765Z,18.39
2019-04-22T07:53:29.338Z,18.41
2019-04-22T07:54:37.708Z,18.68
2019-04-22T07:55:27.333Z,18.93
2019-04-22T07:56:30.562Z,18.93
2019-04-22T07:57:44.532Z,19.08
2019-04-22T07:58:28.963Z,19.35
2019-04-22T07:59:28.352Z,19.27
2019-04-22T08:00:29.489Z,19.32
2019-04-22T08:01:28.940Z,19.63
2019-04-22T08:02:34.108Z,19.94
2019-04-22T08:03:42.123Z,20.09
2019-04-22T08:05:35.846Z,19.90
2019-04-22T08:06:34.641Z,20.19
2019-04-22T08:08:29.157Z,20.42
2019-04-22T08:09:43.406Z,20.25
2019-04-22T08:13:30.866Z,20.30
2019-04-22T08:14:34.406Z,20.34
2019-04-22T08:15:33.081Z,20.46
2019-04-22T08:16:32.934Z,20.86
2019-04-22T08:18:36.734Z,20.89
2019-04-22T08:19:27.932Z,20.86
2019-04-22T08:20:30.819Z,21.20
2019-04-22T08:21:32.772Z,21.08
2019-04-22T08:22:25.896Z,21.04
2019-04-22T08:23:31.849Z,20.90
2019-04-22T08:24:35.923Z,21.04
2019-04-22T08:25:36.742Z,21.25
2019-04-22T08:26:32.300Z,21.05
2019-04-22T08:27:31.464Z,21.25
2019-04-22T08:28:32.141Z,21.40
2019-04-22T08:29:37.685Z,21.55
2019-04-22T08:30:36.930Z,21.80
2019-04-22T08:33:36.135Z,21.59
2019-04-22T08:34:29.622Z,21.50
2019-04-22T08:36:31.609Z,21.81
2019-04-22T08:38:35.388Z,22.04
2019-04-22T08:39:40.704Z,22.40
2019-04-22T08:43:36.369Z,22.91
2019-04-22T08:43:39.205Z,22.95
2019-04-22T08:45:33.632Z,22.59
2019-04-22T08:46:33.143Z,22.73
2019-04-22T08:47:31.063Z,22.96
2019-04-22T08:48:32.954Z,23.28
2019-04-22T08:50:26.836Z,23.82
2019-04-22T08:53:35.870Z,23.49
2019-04-22T08:54:34.068Z,23.33
2019-04-22T08:55:31.302Z,23.21
2019-04-22T08:57:34.733Z,23.39
2019-04-22T08:58:27.387Z,23.66
2019-04-22T08:59:29.044Z,23.92
2019-04-22T09:00:34.342Z,23.82
2019-04-22T09:01:27.110Z,24.13
2019-04-22T09:02:43.535Z,24.52
2019-04-22T09:03:24.400Z,24.41
2019-04-22T09:04:24.452Z,23.88
2019-04-22T09:05:44.342Z,24.40
2019-04-22T09:08:48.758Z,24.18
2019-04-22T09:09:34.650Z,24.06
2019-04-22T09:10:36.242Z,24.28
2019-04-22T09:11:37.348Z,24.56
2019-04-22T09:12:49.602Z,24.34
2019-04-22T09:13:30.171Z,24.13
2019-04-22T09:14:32.476Z,24.36
2019-04-22T09:15:30.970Z,24.16
2019-04-22T09:16:32.112Z,24.37
2019-04-22T09:17:31.483Z,24.52
2019-04-22T09:18:31.155Z,24.63
2019-04-22T09:19:31.565Z,24.60
2019-04-22T09:21:49.993Z,24.65
2019-04-22T09:23:38.788Z,25.11
2019-04-22T09:24:29.638Z,25.14
2019-04-22T09:25:29.895Z,25.45
2019-04-22T09:26:30.654Z,25.23
2019-04-22T09:27:34.894Z,24.91
2019-04-22T09:28:30.597Z,24.82
2019-04-22T09:29:35.688Z,25.04
2019-04-22T09:30:36.997Z,25.21
2019-04-22T09:31:29.209Z,25.16
2019-04-22T09:32:36.248Z,24.97
2019-04-22T09:34:32.017Z,24.48
2019-04-22T09:35:31.508Z,24.58
2019-04-22T09:36:50.360Z,24.53
2019-04-22T09:37:34.593Z,24.55
2019-04-22T09:38:42.362Z,24.82
2019-04-22T09:40:31.590Z,25.06
2019-04-22T09:41:37.508Z,24.79
2019-04-22T09:43:32.008Z,24.89
2019-04-22T09:44:34.797Z,24.91
2019-04-22T09:45:29.373Z,25.40
2019-04-22T09:46:33.008Z,25.19
2019-04-22T09:48:29.777Z,24.91
2019-04-22T09:50:31.390Z,25.16
2019-04-22T09:52:28.142Z,24.71
2019-04-22T09:53:29.705Z,24.94
2019-04-22T09:54:36.991Z,25.00
2019-04-22T09:55:43.111Z,25.12
2019-04-22T09:56:35.839Z,24.99
2019-04-22T09:57:26.203Z,25.06
2019-04-22T09:59:28.285Z,25.08
2019-04-22T10:00:28.607Z,25.48
2019-04-22T10:02:34.095Z,26.00
2019-04-22T10:03:25.919Z,26.24
2019-04-22T10:04:25.388Z,26.05
2019-04-22T10:05:38.536Z,26.15
2019-04-22T10:06:35.513Z,25.66
2019-04-22T10:07:31.833Z,25.21
2019-04-22T10:08:36.223Z,25.16
2019-04-22T10:09:40.553Z,25.12
2019-04-22T10:10:29.577Z,25.00
2019-04-22T10:12:32.360Z,25.66
2019-04-22T10:13:42.109Z,25.43
2019-04-22T10:14:32.026Z,25.38
2019-04-22T10:16:31.285Z,25.03
2019-04-22T10:17:26.077Z,25.43
2019-04-22T10:18:34.152Z,26.00
2019-04-22T10:19:29.971Z,26.24
2019-04-22T10:20:32.349Z,26.28
2019-04-22T10:22:32.092Z,26.33
2019-04-22T10:24:26.453Z,26.34
2019-04-22T10:25:32.849Z,25.90
2019-04-22T10:26:34.885Z,25.52
2019-04-22T10:27:27.982Z,25.73
2019-04-22T10:28:32.338Z,25.64
2019-04-22T10:29:35.361Z,25.77
2019-04-22T10:30:38.391Z,25.46
2019-04-22T10:31:31.005Z,25.43
2019-04-22T10:32:27.991Z,25.38
2019-04-22T10:34:14.003Z,25.30
2019-04-22T10:35:08.426Z,25.21
2019-04-22T10:36:03.636Z,25.51
2019-04-22T10:37:08.560Z,25.86
2019-04-22T10:38:03.906Z,26.05
2019-04-22T10:39:04.213Z,25.93
2019-04-22T10:40:07.423Z,25.41
2019-04-22T10:41:02.838Z,25.46
2019-04-22T10:42:03.009Z,25.52
2019-04-22T10:44:03.504Z,25.51
2019-04-22T10:45:03.867Z,25.92
2019-04-22T10:46:04.138Z,26.03
2019-04-22T10:47:04.252Z,25.96
2019-04-22T10:48:03.996Z,26.36
2019-04-22T10:49:04.135Z,26.63
2019-04-22T10:50:02.844Z,26.42
2019-04-22T10:51:02.770Z,26.21
2019-04-22T10:52:02.760Z,25.88
2019-04-22T10:53:03.550Z,25.89
2019-04-22T10:54:02.744Z,25.68
2019-04-22T10:55:03.528Z,25.61
2019-04-22T10:56:03.278Z,25.66
2019-04-22T10:57:03.262Z,25.89
2019-04-22T10:58:02.741Z,25.55
2019-04-22T10:59:02.735Z,25.45
2019-04-22T11:00:02.966Z,25.16
2019-04-22T11:01:03.409Z,25.41
2019-04-22T11:02:03.456Z,25.34
2019-04-22T11:03:02.714Z,25.01
2019-04-22T11:04:03.491Z,25.14
2019-04-22T11:05:04.034Z,25.11
2019-04-22T11:06:03.288Z,25.00
2019-04-22T11:07:07.115Z,25.06
2019-04-22T11:08:06.193Z,25.11
2019-04-22T11:09:04.877Z,24.85
2019-04-22T11:10:21.172Z,24.84
2019-04-22T11:11:16.927Z,24.81
2019-04-22T11:12:11.237Z,25.03
2019-04-22T11:13:03.001Z,25.09
2019-04-22T11:14:04.124Z,25.15
2019-04-22T11:15:03.485Z,25.41
2019-04-22T11:16:03.499Z,25.45
2019-04-22T11:17:05.326Z,25.67
2019-04-22T11:18:02.682Z,25.40
2019-04-22T11:19:03.553Z,25.38
2019-04-22T11:20:03.809Z,25.74
2019-04-22T11:21:03.058Z,25.90
2019-04-22T11:22:10.963Z,26.00
2019-04-22T11:23:02.705Z,26.34
2019-04-22T11:24:02.991Z,26.39
2019-04-22T11:25:03.653Z,26.30
2019-04-22T11:26:03.902Z,26.11
2019-04-22T11:27:03.232Z,25.82
2019-04-22T11:28:02.755Z,25.83
2019-04-22T11:29:03.620Z,26.08
2019-04-22T11:30:03.929Z,26.16
2019-04-22T11:31:02.750Z,25.88
2019-04-22T11:32:02.637Z,25.64
2019-04-22T11:34:02.915Z,25.64
2019-04-22T11:35:03.730Z,25.88
2019-04-22T11:36:03.846Z,25.59
2019-04-22T11:37:03.228Z,25.85
2019-04-22T11:38:02.657Z,26.42
2019-04-22T11:39:05.668Z,26.31
2019-04-22T11:40:11.489Z,25.83
2019-04-22T11:42:02.598Z,25.74
2019-04-22T11:43:03.915Z,26.15
2019-04-22T11:44:03.122Z,26.04
2019-04-22T11:47:09.659Z,26.33
2019-04-22T11:48:06.693Z,26.39
2019-04-22T11:49:03.739Z,26.11
2019-04-22T11:50:10.096Z,25.95
2019-04-22T11:51:04.153Z,25.93
2019-04-22T11:52:04.851Z,26.16
2019-04-22T11:53:02.890Z,26.41
2019-04-22T11:54:03.012Z,26.61
2019-04-22T11:55:02.566Z,26.80
2019-04-22T11:56:02.933Z,26.52
2019-04-22T11:57:03.066Z,26.07
2019-04-22T11:58:03.143Z,25.96
2019-04-22T11:59:02.775Z,26.19
2019-04-22T12:00:03.299Z,26.19
2019-04-22T12:01:03.119Z,26.26
2019-04-22T12:02:02.632Z,26.15
2019-04-22T12:03:03.210Z,26.27
2019-04-22T12:04:03.969Z,26.58
2019-04-22T12:05:03.787Z,26.61
2019-04-22T12:06:03.842Z,26.64
2019-04-22T12:07:04.231Z,26.94
2019-04-22T12:08:03.010Z,26.94
2019-04-22T12:09:03.876Z,26.89
2019-04-22T12:10:15.140Z,26.36
2019-04-22T12:11:05.799Z,26.41
2019-04-22T12:12:03.474Z,26.33
2019-04-22T12:13:03.661Z,26.34
2019-04-22T12:15:03.932Z,26.89
2019-04-22T12:16:03.306Z,26.63
2019-04-22T12:18:03.709Z,26.97
2019-04-22T12:20:06.547Z,27.60
2019-04-22T12:21:03.542Z,27.69
2019-04-22T12:22:02.926Z,27.88
2019-04-22T12:23:03.221Z,27.41
2019-04-22T12:24:03.417Z,27.45
2019-04-22T12:25:04.073Z,27.50
2019-04-22T12:26:08.626Z,27.47
2019-04-22T12:28:03.348Z,27.38
2019-04-22T12:29:02.963Z,27.10
2019-04-22T12:30:03.010Z,26.80
2019-04-22T12:31:03.694Z,25.92
2019-04-22T12:32:03.273Z,26.11
2019-04-22T12:34:03.681Z,26.45
2019-04-22T12:35:02.458Z,26.24
2019-04-22T12:36:02.760Z,25.98
2019-04-22T12:37:02.696Z,26.39
2019-04-22T12:38:06.496Z,26.68
2019-04-22T12:39:03.280Z,26.73
2019-04-22T12:40:02.739Z,26.93
2019-04-22T12:42:02.731Z,27.00
2019-04-22T12:43:04.695Z,26.52
2019-04-22T12:44:03.303Z,26.01
2019-04-22T12:45:02.591Z,26.26
2019-04-22T12:46:02.519Z,25.88
2019-04-22T12:47:04.357Z,25.96
2019-04-22T12:48:02.455Z,26.12
2019-04-22T12:49:02.473Z,26.42
2019-04-22T12:51:03.044Z,26.95
2019-04-22T12:52:03.096Z,27.05
2019-04-22T12:53:07.254Z,27.05
2019-04-22T12:54:03.374Z,26.63
2019-04-22T12:55:03.782Z,26.67
2019-04-22T12:56:02.989Z,26.67
2019-04-22T13:00:03.712Z,26.75
2019-04-22T13:01:03.317Z,26.36
2019-04-22T13:02:03.050Z,26.75
2019-04-22T13:03:03.142Z,26.80
2019-04-22T13:04:07.783Z,26.36
2019-04-22T13:05:03.811Z,26.51
2019-04-22T13:06:03.659Z,26.10
2019-04-22T13:08:02.422Z,25.49
2019-04-22T13:09:02.385Z,25.56
2019-04-22T13:10:03.928Z,25.81
2019-04-22T13:11:08.728Z,26.00
2019-04-22T13:12:03.350Z,26.07
2019-04-22T13:13:02.830Z,25.77
2019-04-22T13:14:03.057Z,25.89
2019-04-22T13:20:02.678Z,26.52
2019-04-22T13:21:02.412Z,26.11
2019-04-22T13:22:02.899Z,26.01
2019-04-22T13:24:18.041Z,26.36
2019-04-22T13:25:03.966Z,26.26
2019-04-22T13:26:03.092Z,26.49
2019-04-22T13:27:03.318Z,26.61
2019-04-22T13:28:02.980Z,26.61
2019-04-22T13:29:03.198Z,26.94
2019-04-22T13:30:04.573Z,27.12
2019-04-22T13:31:03.700Z,26.83
2019-04-22T13:32:02.570Z,26.95
2019-04-22T13:33:02.939Z,26.30
2019-04-22T13:34:04.071Z,25.90
2019-04-22T13:35:03.963Z,26.01
2019-04-22T13:36:03.642Z,26.27
2019-04-22T13:38:02.291Z,26.64
2019-04-22T13:39:02.980Z,26.97
2019-04-22T13:41:16.528Z,27.04
2019-04-22T13:42:05.692Z,26.56
2019-04-22T13:43:02.771Z,26.33
2019-04-22T13:44:02.272Z,26.46
2019-04-22T13:45:02.381Z,26.61
2019-04-22T13:46:02.268Z,26.52
2019-04-22T13:47:14.610Z,26.70
2019-04-22T13:49:34.040Z,26.38
2019-04-22T13:50:41.221Z,26.58
2019-04-22T13:51:30.177Z,26.23
2019-04-22T13:52:45.121Z,26.28
2019-04-22T13:55:37.849Z,26.63
2019-04-22T13:56:23.829Z,26.52
2019-04-22T13:57:21.384Z,26.39
2019-04-22T13:58:15.698Z,26.52
2019-04-22T13:59:10.355Z,26.36
2019-04-22T14:00:04.189Z,26.24
2019-04-22T14:01:02.665Z,25.89
2019-04-22T14:02:02.214Z,25.64
2019-04-22T14:03:02.444Z,25.96
2019-04-22T14:04:02.692Z,26.21
2019-04-22T14:05:02.196Z,25.96
2019-04-22T14:06:02.686Z,25.96
2019-04-22T14:07:02.902Z,26.01
2019-04-22T14:08:02.938Z,25.95
2019-04-22T14:09:03.191Z,26.00
2019-04-22T14:10:02.624Z,25.90
2019-04-22T14:11:14.836Z,25.95
2019-04-22T14:12:05.705Z,26.08
2019-04-22T14:13:03.716Z,26.51
2019-04-22T14:14:02.906Z,26.23
2019-04-22T14:15:02.455Z,26.19
2019-04-22T14:16:02.162Z,26.34
2019-04-22T14:17:02.971Z,26.33
2019-04-22T14:18:03.039Z,26.39
2019-04-22T14:20:02.589Z,26.79
2019-04-22T14:21:02.874Z,26.36
2019-04-22T14:22:03.911Z,26.52
2019-04-22T14:23:03.112Z,26.42
2019-04-22T14:25:02.918Z,26.03
2019-04-22T14:26:02.118Z,25.83
2019-04-22T14:27:19.246Z,25.90
2019-04-22T14:29:04.007Z,25.81
2019-04-22T14:30:02.166Z,25.74
2019-04-22T14:32:10.519Z,25.67
2019-04-22T14:33:02.737Z,25.75
2019-04-22T14:34:05.247Z,26.00
2019-04-22T14:35:03.102Z,26.24
2019-04-22T14:37:03.477Z,26.16
2019-04-22T14:38:02.068Z,25.75
2019-04-22T14:39:02.102Z,25.33
2019-04-22T14:40:06.425Z,25.06
2019-04-22T14:41:02.563Z,24.90
2019-04-22T14:45:35.800Z,25.45
2019-04-22T14:47:29.287Z,25.71
2019-04-22T14:48:33.435Z,25.70
2019-04-22T14:49:23.960Z,25.59
2019-04-22T14:50:23.723Z,25.89
2019-04-22T14:51:22.265Z,25.68
2019-04-22T14:52:27.661Z,25.45
2019-04-22T14:53:20.736Z,25.38
2019-04-22T14:54:18.192Z,25.45
2019-04-22T14:55:10.177Z,25.37
2019-04-22T14:56:02.356Z,25.33
2019-04-22T14:57:03.327Z,25.43
2019-04-22T14:58:02.018Z,25.45
2019-04-22T14:59:02.960Z,25.46
2019-04-22T15:00:02.373Z,25.61
2019-04-22T15:01:03.312Z,25.86
2019-04-22T15:02:03.416Z,25.75
2019-04-22T15:03:01.943Z,25.58
2019-04-22T15:04:02.920Z,25.53
2019-04-22T15:05:03.543Z,25.31
2019-04-22T15:06:02.229Z,25.14
2019-04-22T15:07:03.063Z,25.11
2019-04-22T15:08:03.195Z,25.15
2019-04-22T15:09:01.966Z,24.96
2019-04-22T15:10:02.144Z,24.94
2019-04-22T15:11:02.263Z,24.93
2019-04-22T15:12:10.961Z,25.04
2019-04-22T15:13:03.043Z,25.09
2019-04-22T15:14:03.225Z,24.96
2019-04-22T15:15:01.895Z,25.30
2019-04-22T15:16:03.186Z,25.59
2019-04-22T15:17:02.633Z,25.46
2019-04-22T15:18:03.065Z,25.27
2019-04-22T15:19:02.060Z,24.84
2019-04-22T15:20:01.888Z,25.00
2019-04-22T15:21:02.718Z,24.97
2019-04-22T15:22:03.059Z,24.76
2019-04-22T15:23:02.327Z,24.81
2019-04-22T15:24:02.442Z,24.52
2019-04-22T15:25:02.957Z,24.56
2019-04-22T15:26:02.270Z,24.68
2019-04-22T15:27:02.622Z,24.81
2019-04-22T15:31:01.912Z,25.51
2019-04-22T15:32:03.226Z,25.66
2019-04-22T15:33:03.308Z,25.71
2019-04-22T15:34:02.644Z,25.70
2019-04-22T15:35:02.012Z,25.58
2019-04-22T15:36:01.814Z,25.38
2019-04-22T15:38:01.746Z,25.41
2019-04-22T15:39:02.964Z,25.09
2019-04-22T15:40:02.865Z,25.06
2019-04-22T15:41:02.840Z,24.78
2019-04-22T15:42:11.619Z,24.25
2019-04-22T15:43:02.662Z,24.52
2019-04-22T15:44:01.944Z,24.44
2019-04-22T15:45:02.561Z,24.26
2019-04-22T15:46:03.855Z,24.26
2019-04-22T15:47:02.819Z,24.11
2019-04-22T15:48:02.131Z,24.03
2019-04-22T15:49:02.156Z,24.01
2019-04-22T15:50:01.753Z,23.56
2019-04-22T15:51:02.850Z,23.54
2019-04-22T15:52:02.963Z,23.66
2019-04-22T15:53:04.183Z,23.69
2019-04-22T15:54:01.628Z,23.55
2019-04-22T15:55:02.950Z,23.66
2019-04-22T15:56:02.896Z,23.85
2019-04-22T15:57:02.489Z,24.08
2019-04-22T15:58:01.875Z,23.86
2019-04-22T15:59:01.990Z,24.01
2019-04-22T16:00:14.342Z,23.92
2019-04-22T16:02:02.678Z,23.42
2019-04-22T16:03:06.049Z,23.25
2019-04-22T16:04:02.833Z,23.36
2019-04-22T16:05:02.721Z,23.34
2019-04-22T16:06:02.175Z,23.67
2019-04-22T16:07:03.279Z,23.56
2019-04-22T16:08:01.521Z,23.31